KUGN/UGN METAR and TAF weather

Enter ICAO airport designator
Station Type Date Time Source
KUGN METAR 2021/04/14 19:55 UTC NOAA

KUGN 141955Z 31008G17KT 10SM OVC044 07/M03 A3005 RMK AO2 SLP182 T00721033


Station Type Date Time Source
KUGN Decoded METAR 2021/04/14 19:55 UTC NOAA

CHICAGO/WAUKEGAN REGIONAL, IL, United States (KUGN) 42-25N 087-52W
Apr 14, 2021 - 03:55 PM EDT / 2021.04.14 1955 UTC
Wind: from the NW (310 degrees) at 9 MPH (8 KT) gusting to 20 MPH (17 KT):0
Visibility: 10 mile(s):0
Sky conditions: overcast
Temperature: 45.0 F (7.2 C)
Dew Point: 26.1 F (-3.3 C)
Relative Humidity: 47%
Pressure (altimeter): 30.05 in. Hg (1017 hPa)
ob: KUGN 141955Z 31008G17KT 10SM OVC044 07/M03 A3005 RMK AO2 SLP182 T00721033
cycle: 20

Station Type Date Time Source
KUGN TAF UTC NOAA

Error!

Example: see airport list